Time;durP1;ratioP1;P1;durP2;ratioP2;P2;SDS_P1;SDS_P2;PMS_P1;PMS_P2;Temp;Humidity;BMP_temperature;BMP_pressure;BME280_temperature;BME280_humidity;BME280_pressure;Samples;Min_cycle;Max_cycle;Signal;HPM_P1;HPM_P2
2023/08/23 00:00:48;;;;;;;15.90;13.90;;;;;;;-141.97;47.28;47351.88;5014242;28;20177;-84
2023/08/23 00:03:13;;;;;;;17.08;14.38;;;;;;;-141.97;47.79;47340.34;5013805;28;20169;-84
2023/08/23 00:05:38;;;;;;;16.92;14.13;;;;;;;-141.97;48.18;47267.31;5014274;28;20202;-83
2023/08/23 00:08:04;;;;;;;17.55;13.90;;;;;;;-141.97;48.52;47338.41;5017839;28;20185;-84
2023/08/23 00:10:29;;;;;;;16.00;13.82;;;;;;;-141.97;49.20;47280.75;5017941;28;20179;-83
2023/08/23 00:12:56;;;;;;;18.00;14.25;;;;;;;-141.97;49.59;47313.44;5013732;28;20174;-85
2023/08/23 00:15:22;;;;;;;17.02;14.90;;;;;;;-141.97;49.58;47349.94;5015348;28;20260;-84
2023/08/23 00:17:47;;;;;;;17.73;15.30;;;;;;;-141.97;49.99;47494.09;5018191;28;20166;-83
2023/08/23 00:20:13;;;;;;;19.00;14.18;;;;;;;-141.97;50.98;47361.47;5022572;28;20178;-83
2023/08/23 00:22:38;;;;;;;16.83;14.90;;;;;;;-141.97;51.07;47278.84;5016803;28;20170;-85
2023/08/23 00:25:04;;;;;;;16.60;14.80;;;;;;;-141.97;51.47;47317.28;5014239;28;20555;-84
2023/08/23 00:27:29;;;;;;;18.60;15.27;;;;;;;-141.97;51.29;47348.03;5012864;28;20193;-85
2023/08/23 00:29:55;;;;;;;17.55;14.50;;;;;;;-141.97;51.45;47461.41;5013201;28;20184;-84
2023/08/23 00:32:20;;;;;;;20.52;14.60;;;;;;;-141.97;51.46;47349.94;5025962;28;20280;-85
2023/08/23 00:34:45;;;;;;;17.00;14.75;;;;;;;-141.97;51.98;47257.69;5013969;28;20284;-85
2023/08/23 00:37:11;;;;;;;17.33;14.93;;;;;;;-141.97;52.18;47334.56;5014267;28;20227;-84
2023/08/23 00:39:36;;;;;;;18.42;15.40;;;;;;;-141.97;51.62;47303.81;5014394;28;20243;-85
2023/08/23 00:42:02;;;;;;;19.98;16.00;;;;;;;-141.97;51.93;47330.72;5013729;28;20175;-85
2023/08/23 00:44:27;;;;;;;22.67;16.55;;;;;;;-141.97;51.72;47307.66;5013512;28;20211;-86
2023/08/23 00:46:52;;;;;;;19.35;15.85;;;;;;;-141.97;51.26;47348.03;5013709;28;20621;-86
2023/08/23 00:49:18;;;;;;;22.02;15.85;;;;;;;-141.97;50.77;47323.03;5013886;28;20504;-83
2023/08/23 00:51:44;;;;;;;23.17;15.50;;;;;;;-141.97;50.61;47538.28;5013373;28;20554;-84
2023/08/23 00:54:09;;;;;;;20.50;15.00;;;;;;;-141.97;51.25;47486.41;5013768;28;20231;-85
2023/08/23 00:56:36;;;;;;;21.77;15.95;;;;;;;-141.97;51.17;47169.28;5010583;28;20616;-83
2023/08/23 00:59:02;;;;;;;20.17;15.65;;;;;;;-141.97;51.84;47159.69;5012949;28;20324;-83
2023/08/23 01:01:27;;;;;;;19.05;15.88;;;;;;;-141.97;52.86;47371.09;5011708;28;20208;-83
2023/08/23 01:03:55;;;;;;;21.20;15.98;;;;;;;-141.97;53.13;47357.63;5013072;28;20250;-83
2023/08/23 01:06:24;;;;;;;20.30;15.17;;;;;;;-141.97;53.56;47376.84;5013004;28;20176;-83
2023/08/23 01:08:58;;;;;;;17.90;15.50;;;;;;;-141.97;53.62;47355.72;5012249;28;20174;-83
2023/08/23 01:11:33;;;;;;;20.63;16.13;;;;;;;-141.97;53.54;47542.16;5012241;28;20170;-83
2023/08/23 01:14:11;;;;;;;17.47;15.17;;;;;;;-141.97;53.73;47511.38;5011422;28;20163;-83
2023/08/23 01:16:38;;;;;;;21.63;16.23;;;;;;;-141.97;53.46;47603.66;5013729;28;20227;-84
2023/08/23 01:19:15;;;;;;;24.25;15.95;;;;;;;-141.97;53.85;47073.19;5013876;28;20179;-84
2023/08/23 01:21:46;;;;;;;19.50;15.27;;;;;;;-141.97;54.26;47371.09;5015717;28;20248;-85
2023/08/23 01:24:12;;;;;;;18.70;14.73;;;;;;;-141.97;54.02;47225.03;5016028;28;20184;-84
2023/08/23 01:26:40;;;;;;;21.00;15.83;;;;;;;-141.97;54.08;47365.31;5011191;28;20177;-84
2023/08/23 01:29:07;;;;;;;20.20;15.30;;;;;;;-141.97;53.73;47349.94;5011412;28;20606;-83
2023/08/23 01:31:42;;;;;;;20.90;16.37;;;;;;;-141.97;54.27;47382.63;5012639;28;20167;-83
2023/08/23 01:34:20;;;;;;;18.70;15.43;;;;;;;-141.97;56.07;47517.16;5012393;28;20175;-84
2023/08/23 01:36:46;;;;;;;22.17;15.67;;;;;;;-141.97;56.10;47386.47;5012455;28;20224;-83
2023/08/23 01:39:12;;;;;;;20.60;16.13;;;;;;;-141.97;55.35;47369.16;5012027;28;20192;-84
2023/08/23 01:41:39;;;;;;;18.87;15.47;;;;;;;-141.97;55.58;47384.53;5010488;28;20623;-84
2023/08/23 01:44:05;;;;;;;19.77;15.83;;;;;;;-141.97;54.97;47311.50;5012131;28;20738;-83
2023/08/23 01:46:30;;;;;;;24.83;16.37;;;;;;;-141.97;54.51;47378.78;5022407;28;20261;-83
2023/08/23 01:48:56;;;;;;;20.87;16.60;;;;;;;-141.97;54.52;47392.22;5011503;28;20650;-84
2023/08/23 01:51:21;;;;;;;22.67;17.10;;;;;;;-141.97;54.62;47380.69;5010131;28;20200;-84
2023/08/23 01:53:47;;;;;;;20.90;16.70;;;;;;;-141.97;54.54;47486.41;5011454;28;20241;-83
2023/08/23 01:56:12;;;;;;;20.83;16.83;;;;;;;-141.97;55.88;47349.94;5014634;28;20185;-83
2023/08/23 01:58:38;;;;;;;20.90;16.67;;;;;;;-141.97;56.10;47378.78;5021574;28;20225;-83
2023/08/23 02:01:03;;;;;;;22.07;17.00;;;;;;;-141.97;56.48;47401.84;5012896;28;20177;-84
2023/08/23 02:03:28;;;;;;;22.83;17.30;;;;;;;-141.97;56.04;47422.97;5010350;28;20280;-84
2023/08/23 02:05:55;;;;;;;24.43;17.80;;;;;;;-141.97;55.90;47115.47;5010059;28;20187;-83
2023/08/23 02:08:20;;;;;;;23.50;18.23;;;;;;;-141.97;55.38;47476.78;5011625;28;20163;-84
2023/08/23 02:10:45;;;;;;;22.83;18.13;;;;;;;-141.97;55.58;47223.09;5011940;28;20174;-84
2023/08/23 02:13:11;;;;;;;22.90;17.50;;;;;;;-141.97;55.85;47403.75;5010242;28;20646;-83
2023/08/23 02:15:36;;;;;;;21.73;18.40;;;;;;;-141.97;57.03;47561.38;5011499;28;20162;-85
2023/08/23 02:18:02;;;;;;;22.23;18.40;;;;;;;-141.97;57.51;47321.13;5011978;28;20612;-84
2023/08/23 02:20:27;;;;;;;25.47;18.40;;;;;;;-141.97;57.30;47276.91;5012343;28;20720;-84
2023/08/23 02:22:52;;;;;;;21.47;17.87;;;;;;;-141.97;56.91;47371.09;5010945;28;20214;-84
2023/08/23 02:25:18;;;;;;;25.50;18.23;;;;;;;-141.97;57.50;47407.59;5026236;28;20282;-83
2023/08/23 02:27:43;;;;;;;24.60;18.60;;;;;;;-141.97;58.51;47576.75;5011689;28;20174;-84
2023/08/23 02:30:09;;;;;;;25.23;19.37;;;;;;;-141.97;59.46;47507.53;5011757;28;20241;-84
2023/08/23 02:32:35;;;;;;;24.20;19.40;;;;;;;-141.97;59.08;47582.50;5010981;28;20272;-84
2023/08/23 02:35:02;;;;;;;23.83;19.10;;;;;;;-141.97;59.20;47628.63;5011398;28;20249;-85
2023/08/23 02:37:27;;;;;;;26.40;19.70;;;;;;;-141.97;59.80;47426.81;5018479;28;20202;-84
2023/08/23 02:39:53;;;;;;;24.53;19.20;;;;;;;-141.97;60.60;47173.13;5016355;28;20635;-84
2023/08/23 02:42:18;;;;;;;28.57;19.47;;;;;;;-141.97;60.64;47576.75;5020889;28;20187;-83
2023/08/23 02:44:43;;;;;;;25.80;19.93;;;;;;;-141.97;61.96;47407.59;5016757;28;20267;-85
2023/08/23 02:47:09;;;;;;;25.80;19.80;;;;;;;-141.97;62.10;47590.19;5022785;28;20658;-84
2023/08/23 02:49:34;;;;;;;25.77;19.63;;;;;;;-141.97;62.86;47238.47;5031869;28;20206;-84
2023/08/23 02:52:00;;;;;;;25.90;19.80;;;;;;;-141.97;62.38;47413.38;5031750;28;20170;-84
2023/08/23 02:54:25;;;;;;;26.33;19.13;;;;;;;-141.97;62.18;47599.81;5027566;28;20218;-83
2023/08/23 02:56:50;;;;;;;22.50;19.10;;;;;;;-141.97;61.97;47419.13;5010026;28;20517;-84
2023/08/23 02:59:16;;;;;;;24.63;18.27;;;;;;;-141.97;61.87;47394.16;5012533;28;20193;-84
2023/08/23 03:01:41;;;;;;;25.10;19.20;;;;;;;-141.97;62.13;47419.13;5016078;28;20291;-85
2023/08/23 03:04:06;;;;;;;27.17;19.20;;;;;;;-141.97;62.20;47576.75;5015624;28;20200;-83
2023/08/23 03:06:32;;;;;;;24.67;18.80;;;;;;;-141.97;61.51;47271.16;5008550;28;20174;-83
2023/08/23 03:08:57;;;;;;;25.27;19.13;;;;;;;-141.97;60.99;47382.63;5010307;28;20175;-83
2023/08/23 03:11:23;;;;;;;25.40;19.37;;;;;;;-141.97;61.53;47538.28;5010678;28;20185;-84
2023/08/23 03:13:48;;;;;;;24.37;19.13;;;;;;;-141.97;62.43;47403.75;5011274;28;20163;-83
2023/08/23 03:16:13;;;;;;;28.03;18.83;;;;;;;-141.97;62.69;47480.63;5011264;28;20583;-83
2023/08/23 03:18:39;;;;;;;23.77;18.57;;;;;;;-141.97;62.25;47296.13;4999533;28;20321;-84
2023/08/23 03:21:04;;;;;;;25.37;18.40;;;;;;;-141.97;61.86;47478.72;5010444;28;20249;-83
2023/08/23 03:23:30;;;;;;;30.10;18.30;;;;;;;-141.97;61.18;47422.97;5011172;28;20312;-83
2023/08/23 03:25:56;;;;;;;27.47;18.13;;;;;;;-141.97;60.48;47398.00;5015237;28;20243;-84
2023/08/23 03:28:21;;;;;;;23.30;18.07;;;;;;;-141.97;61.02;47415.28;5019514;28;20222;-84
2023/08/23 03:30:46;;;;;;;26.63;18.70;;;;;;;-141.97;60.79;47424.91;5015527;28;20245;-83
2023/08/23 03:33:12;;;;;;;31.30;18.93;;;;;;;-141.97;60.90;47415.28;5014910;28;20243;-84
2023/08/23 03:35:37;;;;;;;23.20;19.10;;;;;;;-141.97;61.20;47430.66;5011853;28;20254;-83
2023/08/23 03:38:03;;;;;;;27.87;19.37;;;;;;;-141.97;61.63;47424.91;5012699;28;20173;-83
2023/08/23 03:40:28;;;;;;;25.53;19.20;;;;;;;-141.97;61.77;47403.75;5014739;28;20159;-82
2023/08/23 03:42:53;;;;;;;31.47;20.97;;;;;;;-141.97;62.81;47394.16;5014624;28;20178;-83
2023/08/23 03:45:19;;;;;;;32.67;21.70;;;;;;;-141.97;62.77;47349.94;5014277;28;20228;-83
2023/08/23 03:47:45;;;;;;;30.37;21.93;;;;;;;-141.97;62.97;47424.91;5013048;28;20182;-83
2023/08/23 03:50:11;;;;;;;28.83;21.03;;;;;;;-141.97;63.47;47403.75;5014188;28;20217;-83
2023/08/23 03:52:37;;;;;;;25.43;19.40;;;;;;;-141.97;64.18;47373.00;5014067;28;20291;-83
2023/08/23 03:55:02;;;;;;;30.17;20.00;;;;;;;-141.97;64.20;47403.75;5014002;28;20167;-84
2023/08/23 03:57:28;;;;;;;25.67;18.70;;;;;;;-141.97;63.79;47330.72;5014519;28;20167;-83
2023/08/23 03:59:53;;;;;;;21.90;18.07;;;;;;;-141.97;63.67;47617.09;5028059;28;20328;-83
2023/08/23 04:02:19;;;;;;;26.97;18.70;;;;;;;-141.97;64.00;47449.88;5028244;28;20281;-83
2023/08/23 04:04:45;;;;;;;26.20;18.97;;;;;;;-141.97;64.45;47461.41;5013255;28;20202;-83
2023/08/23 04:07:14;;;;;;;28.23;19.00;;;;;;;-141.97;64.49;47426.81;5013414;28;20179;-83
2023/08/23 04:09:40;;;;;;;24.40;18.90;;;;;;;-141.97;64.54;47390.31;5013002;28;20167;-83
2023/08/23 04:12:06;;;;;;;37.93;18.43;;;;;;;-141.97;64.11;47444.13;5012656;28;20265;-83
2023/08/23 04:14:31;;;;;;;28.03;18.83;;;;;;;-141.97;63.76;47446.03;5013372;28;20602;-83
2023/08/23 04:16:57;;;;;;;22.30;17.30;;;;;;;-141.97;64.15;47422.97;5028596;28;20174;-86
2023/08/23 04:19:22;;;;;;;23.80;17.73;;;;;;;-141.97;64.37;47313.44;5013718;28;20173;-86
2023/08/23 04:21:47;;;;;;;23.00;17.40;;;;;;;-141.97;64.15;47253.84;5005553;28;20250;-85
2023/08/23 04:24:13;;;;;;;29.87;17.60;;;;;;;-141.97;64.34;47301.91;5018220;28;20284;-84
2023/08/23 04:26:38;;;;;;;27.27;18.03;;;;;;;-141.97;63.71;47419.13;5016810;28;20631;-85
2023/08/23 04:29:04;;;;;;;26.87;17.37;;;;;;;-141.97;63.97;47376.84;5014263;28;20171;-85
2023/08/23 04:31:30;;;;;;;23.17;17.87;;;;;;;-141.97;64.17;47194.28;5013985;28;20210;-85
2023/08/23 04:33:55;;;;;;;24.73;17.60;;;;;;;-141.97;64.00;47517.16;5013248;28;20220;-86
2023/08/23 04:36:21;;;;;;;25.33;18.47;;;;;;;-141.97;63.42;47665.16;5013071;28;20205;-86
2023/08/23 04:38:47;;;;;;;24.33;17.47;;;;;;;-141.97;62.80;47261.53;5013000;28;20167;-86
2023/08/23 04:41:12;;;;;;;24.97;18.10;;;;;;;-141.97;62.44;47576.75;5011618;28;20612;-85
2023/08/23 04:43:37;;;;;;;25.60;18.50;;;;;;;-141.97;63.00;47421.06;5012039;28;20565;-85
2023/08/23 04:46:06;;;;;;;40.27;18.40;;;;;;;-141.97;62.52;47319.19;5013010;28;20179;-85
2023/08/23 04:48:32;;;;;;;30.20;18.50;;;;;;;-141.97;61.71;47415.28;5013307;28;20203;-84
2023/08/23 04:50:58;;;;;;;28.47;18.67;;;;;;;-141.97;62.35;47234.63;5012820;28;20192;-84
2023/08/23 04:53:24;;;;;;;26.50;17.53;;;;;;;-141.97;62.64;47417.22;5012783;28;20678;-85
2023/08/23 04:55:55;;;;;;;25.40;18.10;;;;;;;-141.97;63.18;47399.91;5013199;28;20159;-85
2023/08/23 04:58:22;;;;;;;25.90;17.97;;;;;;;-141.97;63.35;47269.22;5013440;28;20187;-86
2023/08/23 05:00:48;;;;;;;27.17;18.20;;;;;;;-141.97;62.99;47553.69;5014546;28;20244;-85
2023/08/23 05:03:13;;;;;;;23.37;17.70;;;;;;;-141.97;62.95;47422.97;5013728;28;20190;-85
2023/08/23 05:05:40;;;;;;;26.97;17.70;;;;;;;-141.97;62.74;47630.56;5011607;28;20357;-83
2023/08/23 05:08:06;;;;;;;26.63;18.20;;;;;;;-141.97;62.18;47221.19;5012247;28;20171;-85
2023/08/23 05:10:31;;;;;;;27.50;17.37;;;;;;;-141.97;62.24;47417.22;5012282;28;20171;-85
2023/08/23 05:12:57;;;;;;;22.40;17.23;;;;;;;-141.97;61.62;47371.09;5012449;28;20258;-86
2023/08/23 05:15:23;;;;;;;24.27;17.43;;;;;;;-141.97;61.48;47605.56;5012311;28;20165;-86
2023/08/23 05:17:48;;;;;;;24.73;17.00;;;;;;;-141.97;61.48;47194.28;5012226;28;20554;-85
2023/08/23 05:20:14;;;;;;;22.43;17.37;;;;;;;-141.97;61.31;47128.94;5011085;28;20258;-85
2023/08/23 05:22:40;;;;;;;19.70;16.80;;;;;;;-141.97;61.16;47384.53;5003517;28;20234;-84
2023/08/23 05:25:06;;;;;;;20.60;16.00;;;;;;;-141.97;60.74;47446.03;5012495;28;20198;-85
2023/08/23 05:27:31;;;;;;;23.20;17.27;;;;;;;-141.97;60.50;47607.50;5012608;28;20235;-86
2023/08/23 05:29:59;;;;;;;21.93;16.80;;;;;;;-141.97;60.55;47444.13;5012488;28;20170;-86
2023/08/23 05:32:25;;;;;;;19.97;16.20;;;;;;;-141.97;59.17;47553.69;5015375;28;20221;-85
2023/08/23 05:34:50;;;;;;;21.10;16.57;;;;;;;-141.97;59.10;47313.44;5018645;28;20557;-82
2023/08/23 05:37:15;;;;;;;19.77;15.67;;;;;;;-141.97;58.89;47430.66;5022870;28;20556;-85
2023/08/23 05:39:41;;;;;;;22.53;15.60;;;;;;;-141.97;58.42;47355.72;5032789;28;20245;-84
2023/08/23 05:42:06;;;;;;;19.53;15.40;;;;;;;-141.97;57.58;47422.97;5029024;28;20269;-84
2023/08/23 05:44:32;;;;;;;20.70;15.17;;;;;;;-141.97;56.74;47100.09;5019488;28;20193;-84
2023/08/23 05:46:57;;;;;;;21.40;15.90;;;;;;;-141.97;56.77;47398.00;5012803;28;20163;-83
2023/08/23 05:49:23;;;;;;;20.53;15.40;;;;;;;-141.97;56.59;47203.88;5025010;28;20207;-86
2023/08/23 05:51:50;;;;;;;18.10;15.07;;;;;;;-141.97;55.62;47376.84;5024317;28;20171;-86
2023/08/23 05:54:15;;;;;;;19.37;14.77;;;;;;;-141.97;54.97;47373.00;5012513;28;20222;-85
2023/08/23 05:56:41;;;;;;;21.50;14.73;;;;;;;-141.97;53.92;47434.50;5012559;28;20785;-86
2023/08/23 05:59:06;;;;;;;18.33;14.97;;;;;;;-141.97;53.87;47359.56;5012050;28;20643;-85
2023/08/23 06:01:31;;;;;;;17.80;14.40;;;;;;;-141.97;52.88;47299.97;5011175;28;20558;-85
2023/08/23 06:03:57;;;;;;;22.37;15.03;;;;;;;-141.97;52.61;47474.88;5011322;28;20213;-84
2023/08/23 06:06:22;;;;;;;20.40;15.00;;;;;;;-141.97;51.83;47376.84;5012933;28;20164;-84
2023/08/23 06:08:48;;;;;;;20.70;15.35;;;;;;;-141.97;51.67;47248.09;5011765;28;20246;-84
2023/08/23 06:11:13;;;;;;;19.27;14.20;;;;;;;-141.97;50.93;47613.25;5010023;28;20623;-84
2023/08/23 06:13:42;;;;;;;19.10;15.10;;;;;;;-141.97;49.96;47119.31;5010607;28;20172;-82
2023/08/23 06:16:08;;;;;;;17.63;14.75;;;;;;;-141.97;49.20;47367.25;5010889;28;20173;-85
2023/08/23 06:18:33;;;;;;;21.52;15.45;;;;;;;-141.97;48.34;47219.25;5011118;28;20177;-83
2023/08/23 06:20:59;;;;;;;21.52;15.43;;;;;;;-141.97;48.47;47344.19;5010706;28;20192;-82
2023/08/23 06:23:24;;;;;;;20.60;15.60;;;;;;;-141.97;48.22;47353.78;5011463;28;20190;-82
2023/08/23 06:25:50;;;;;;;20.88;15.25;;;;;;;-141.97;47.43;47365.31;5011421;28;20199;-82
2023/08/23 06:28:15;;;;;;;20.83;14.65;;;;;;;-141.97;47.30;47311.50;5009621;28;20174;-86
2023/08/23 06:30:41;;;;;;;18.10;14.40;;;;;;;-141.97;46.65;47078.97;5010872;28;20274;-83
2023/08/23 06:33:08;;;;;;;17.35;15.13;;;;;;;-141.97;46.79;47307.66;5011212;28;20219;-84
2023/08/23 06:35:33;;;;;;;19.48;15.55;;;;;;;-141.97;46.48;47263.47;5011249;28;20155;-83
2023/08/23 06:37:59;;;;;;;18.38;14.90;;;;;;;-141.97;45.33;47273.06;5011153;28;20170;-84
2023/08/23 06:40:24;;;;;;;22.08;14.73;;;;;;;-141.97;44.77;47273.06;5009643;28;20185;-83
2023/08/23 06:42:50;;;;;;;17.23;14.52;;;;;;;-141.97;44.65;47398.00;5010748;28;20174;-84
2023/08/23 06:45:15;;;;;;;20.33;15.38;;;;;;;-141.97;44.59;47488.31;5009854;28;20805;-83
2023/08/23 06:47:40;;;;;;;23.17;15.85;;;;;;;-141.97;44.45;47134.69;5011091;28;20173;-83
2023/08/23 06:50:07;;;;;;;16.60;14.82;;;;;;;-141.97;43.95;47336.50;5011024;28;20165;-83
2023/08/23 06:52:32;;;;;;;18.95;15.18;;;;;;;-141.97;45.06;47250.00;5010421;28;20665;-83
2023/08/23 06:54:58;;;;;;;17.55;14.60;;;;;;;-141.97;44.22;47323.03;5020608;28;20198;-84
2023/08/23 06:57:29;;;;;;;19.55;15.02;;;;;;;-141.97;43.79;47349.94;5011986;28;20168;-84
2023/08/23 06:59:56;;;;;;;16.27;14.35;;;;;;;-141.97;44.28;47207.72;5011097;28;20168;-83
2023/08/23 07:02:21;;;;;;;20.15;14.50;;;;;;;-141.97;42.97;47319.19;5009272;28;20182;-84
2023/08/23 07:04:47;;;;;;;18.23;14.50;;;;;;;-141.97;41.94;47238.47;5010813;28;20204;-84
2023/08/23 07:07:12;;;;;;;17.67;14.20;;;;;;;-141.97;41.47;47540.22;5009560;28;20176;-84
2023/08/23 07:09:37;;;;;;;17.08;13.95;;;;;;;-141.97;40.68;47494.09;5025941;28;20277;-83
2023/08/23 07:12:03;;;;;;;18.00;14.30;;;;;;;-141.97;40.61;47549.84;5009187;28;20269;-82
2023/08/23 07:14:28;;;;;;;18.80;14.18;;;;;;;-141.97;40.65;47273.06;5015595;28;20708;-82
2023/08/23 07:16:54;;;;;;;19.70;14.32;;;;;;;-141.97;40.79;47250.00;5014221;28;20207;-83
2023/08/23 07:19:19;;;;;;;16.33;13.98;;;;;;;-141.97;41.04;47257.69;5014249;28;20200;-82
2023/08/23 07:21:45;;;;;;;15.80;14.18;;;;;;;-141.97;41.32;47273.06;5014526;28;20165;-83
2023/08/23 07:24:10;;;;;;;17.45;14.50;;;;;;;-141.97;40.92;47075.13;5014321;28;20184;-84
2023/08/23 07:26:36;;;;;;;19.65;13.90;;;;;;;-141.97;40.19;47244.25;5014297;28;20655;-81
2023/08/23 07:29:01;;;;;;;16.73;13.77;;;;;;;-141.97;39.36;47275.00;5013347;28;20657;-82
2023/08/23 07:31:27;;;;;;;14.57;13.07;;;;;;;-141.97;39.79;47030.91;5014248;28;20161;-82
2023/08/23 07:33:52;;;;;;;15.18;13.63;;;;;;;-141.97;39.45;47284.59;5014366;28;20177;-83
2023/08/23 07:36:17;;;;;;;17.25;13.70;;;;;;;-141.97;38.49;47257.69;5014321;28;20257;-83
2023/08/23 07:38:43;;;;;;;18.08;13.52;;;;;;;-141.97;38.46;47242.31;5015184;28;20174;-82
2023/08/23 07:41:08;;;;;;;18.67;13.90;;;;;;;-141.97;38.80;47205.81;5015767;28;20277;-83
2023/08/23 07:43:34;;;;;;;17.98;14.38;;;;;;;-141.97;38.44;47257.69;5015536;28;20265;-83
2023/08/23 07:46:02;;;;;;;20.02;14.02;;;;;;;-141.97;37.69;47248.09;5015750;28;20179;-82
2023/08/23 07:48:28;;;;;;;18.63;14.15;;;;;;;-141.97;37.92;47103.94;5013354;28;20273;-82
2023/08/23 07:50:56;;;;;;;18.90;14.38;;;;;;;-141.97;37.95;47246.16;5014654;28;20622;-82
2023/08/23 07:53:21;;;;;;;18.38;14.30;;;;;;;-141.97;37.75;47004.00;5014282;28;20368;-82
2023/08/23 07:55:47;;;;;;;19.10;14.45;;;;;;;-141.97;37.28;47127.00;5010625;28;20182;-83
2023/08/23 07:58:13;;;;;;;16.95;14.30;;;;;;;-141.97;37.24;47440.28;5009053;28;20591;-83
2023/08/23 08:00:38;;;;;;;19.50;14.30;;;;;;;-141.97;36.56;47211.56;5009847;28;20189;-83
2023/08/23 08:03:04;;;;;;;15.75;14.05;;;;;;;-141.97;36.81;47232.72;5011235;28;20190;-82
2023/08/23 08:05:30;;;;;;;19.63;13.90;;;;;;;-141.97;36.04;47221.19;5010894;28;20203;-82
2023/08/23 08:07:56;;;;;;;17.88;14.38;;;;;;;-141.97;35.58;47234.63;5010717;28;20274;-82
2023/08/23 08:10:22;;;;;;;15.52;13.88;;;;;;;-141.97;36.80;47261.53;5011204;28;20731;-82
2023/08/23 08:12:48;;;;;;;20.00;14.30;;;;;;;-141.97;35.95;47238.47;5000868;28;20229;-82
2023/08/23 08:15:13;;;;;;;15.93;13.38;;;;;;;-141.97;36.28;47219.25;5012422;28;20174;-83
2023/08/23 08:17:39;;;;;;;15.55;13.50;;;;;;;-141.97;35.98;47465.25;5012515;28;20269;-83
2023/08/23 08:20:08;;;;;;;16.88;13.13;;;;;;;-141.97;34.83;47180.81;5025566;28;20190;-83
2023/08/23 08:22:33;;;;;;;17.15;13.32;;;;;;;-141.97;34.56;47200.03;5018364;28;20214;-82
2023/08/23 08:24:58;;;;;;;16.95;13.48;;;;;;;-141.97;34.13;47207.72;5012165;28;20238;-81
2023/08/23 08:27:24;;;;;;;17.95;13.40;;;;;;;-141.97;33.88;47140.47;5013591;28;20545;-83
2023/08/23 08:29:49;;;;;;;14.85;13.25;;;;;;;-141.97;34.80;47230.78;5011420;28;20210;-83
2023/08/23 08:32:15;;;;;;;16.48;13.07;;;;;;;-141.97;34.79;47207.72;5010428;28;20309;-84
2023/08/23 08:34:40;;;;;;;17.65;13.70;;;;;;;-141.97;34.57;47426.81;5010898;28;20186;-82
2023/08/23 08:37:06;;;;;;;14.55;12.82;;;;;;;-141.97;33.84;47184.66;5010885;28;20186;-84
2023/08/23 08:39:32;;;;;;;20.48;13.18;;;;;;;-141.97;33.73;47146.22;5010827;28;20178;-82
2023/08/23 08:41:58;;;;;;;15.05;13.38;;;;;;;-141.97;33.42;47196.19;5009923;28;20189;-82
2023/08/23 08:44:24;;;;;;;18.65;12.60;;;;;;;-141.97;33.15;47176.97;5010083;28;20289;-83
2023/08/23 08:46:50;;;;;;;18.10;13.35;;;;;;;-141.97;33.19;47061.66;5009437;28;20289;-82
2023/08/23 08:49:15;;;;;;;16.13;12.43;;;;;;;-141.97;32.69;47436.44;5012698;28;20199;-82
2023/08/23 08:51:45;;;;;;;17.33;13.10;;;;;;;-141.97;32.77;47219.25;5007595;28;20205;-82
2023/08/23 08:54:13;;;;;;;15.52;12.68;;;;;;;-141.97;32.34;47050.13;5011122;28;20226;-82
2023/08/23 08:56:39;;;;;;;15.77;11.93;;;;;;;-141.97;32.73;47201.97;5011737;28;20313;-83
2023/08/23 08:59:05;;;;;;;17.05;11.98;;;;;;;-141.97;32.46;47190.44;5013144;28;20194;-83
2023/08/23 09:01:34;;;;;;;13.80;11.52;;;;;;;-141.97;32.12;47111.63;5012945;28;20520;-82
2023/08/23 09:04:00;;;;;;;18.60;11.93;;;;;;;-141.97;31.68;46942.50;5012331;28;20198;-82
2023/08/23 09:06:27;;;;;;;11.20;10.10;;;;;;;-141.97;30.84;47188.50;5012583;28;20162;-83
2023/08/23 09:08:53;;;;;;;11.63;9.90;;;;;;;-141.97;31.24;46884.88;5012468;28;20186;-82
2023/08/23 09:11:19;;;;;;;12.55;10.48;;;;;;;-141.97;30.86;47157.75;5012376;28;20178;-81
2023/08/23 09:13:44;;;;;;;13.13;10.70;;;;;;;-141.97;31.24;47186.59;5012337;28;20262;-82
2023/08/23 09:16:12;;;;;;;14.65;10.20;;;;;;;-141.97;30.89;47130.84;5012528;28;20482;-82
2023/08/23 09:18:46;;;;;;;11.80;10.60;;;;;;;-141.97;31.16;47102.03;5012518;28;20162;-83
2023/08/23 09:21:13;;;;;;;15.10;10.60;;;;;;;-141.97;30.75;47146.22;5012775;28;20246;-82
2023/08/23 09:23:39;;;;;;;13.82;10.35;;;;;;;-141.97;30.37;47132.78;5012389;28;20177;-82
2023/08/23 09:26:08;;;;;;;13.43;10.75;;;;;;;-141.97;30.00;47421.06;5011997;28;20163;-82
2023/08/23 09:28:33;;;;;;;14.02;11.35;;;;;;;-141.97;30.25;47159.69;5012381;28;20537;-82
2023/08/23 09:31:00;;;;;;;13.10;10.48;;;;;;;-141.97;30.17;47136.63;5013431;28;20212;-83
2023/08/23 09:33:25;;;;;;;13.65;10.30;;;;;;;-141.97;30.11;47127.00;5014116;28;20227;-84
2023/08/23 09:35:51;;;;;;;11.30;10.20;;;;;;;-141.97;29.89;47100.09;5014214;28;20158;-82
2023/08/23 09:38:20;;;;;;;15.20;11.00;;;;;;;-141.97;30.13;47188.50;5014372;28;20187;-82
2023/08/23 09:40:47;;;;;;;12.50;10.27;;;;;;;-141.97;29.87;47128.94;5014491;28;20186;-82
2023/08/23 09:43:15;;;;;;;15.32;10.60;;;;;;;-141.97;29.85;47217.34;5032863;28;20174;-82
2023/08/23 09:45:40;;;;;;;13.18;10.10;;;;;;;-141.97;29.78;47088.56;5029634;28;20194;-83
2023/08/23 09:48:09;;;;;;;12.52;10.02;;;;;;;-141.97;29.88;47115.47;5023306;28;20175;-83
2023/08/23 09:50:34;;;;;;;12.52;9.52;;;;;;;-141.97;29.61;47413.38;5021045;28;20170;-86
2023/08/23 09:53:04;;;;;;;12.15;10.25;;;;;;;-141.97;29.69;47136.63;5023210;28;20222;-84
2023/08/23 09:55:32;;;;;;;11.73;10.30;;;;;;;-141.97;30.10;47103.94;5021051;28;20247;-86
2023/08/23 09:57:59;;;;;;;10.88;9.82;;;;;;;-141.97;29.94;46984.78;5013546;28;20189;-86
2023/08/23 10:00:26;;;;;;;14.63;10.32;;;;;;;-141.97;29.24;47415.28;5011626;28;20171;-87
2023/08/23 10:02:53;;;;;;;10.23;9.13;;;;;;;-141.97;29.24;47090.50;5012175;28;20165;-85
2023/08/23 10:05:19;;;;;;;13.02;9.60;;;;;;;-141.97;29.30;46977.09;5012384;28;20280;-86
2023/08/23 10:07:45;;;;;;;10.82;9.70;;;;;;;-141.97;29.30;47472.94;5011971;28;20163;-86
2023/08/23 10:10:11;;;;;;;12.02;9.98;;;;;;;-141.97;29.83;47257.69;5011543;28;20166;-86
2023/08/23 10:12:44;;;;;;;13.73;9.32;;;;;;;-141.97;29.18;47125.09;5012191;28;20559;-88
2023/08/23 10:15:12;;;;;;;10.27;9.27;;;;;;;-141.97;28.81;47142.38;5010262;28;20167;-85
2023/08/23 10:17:39;;;;;;;11.93;9.32;;;;;;;-141.97;28.93;47046.28;5011602;28;20649;-86
2023/08/23 10:20:07;;;;;;;11.80;9.23;;;;;;;-141.97;28.81;47321.13;5011383;28;20150;-87
2023/08/23 10:22:33;;;;;;;11.77;9.57;;;;;;;-141.97;28.63;47102.03;5010243;28;20617;-87
2023/08/23 10:24:59;;;;;;;12.75;8.48;;;;;;;-141.97;28.56;46904.06;5009966;28;20190;-86
2023/08/23 10:27:27;;;;;;;9.40;8.50;;;;;;;-141.97;28.27;47196.19;5011478;28;20221;-85
2023/08/23 10:29:52;;;;;;;9.18;8.15;;;;;;;-141.97;28.17;47086.66;5011520;28;20528;-86
2023/08/23 10:32:18;;;;;;;9.40;8.40;;;;;;;-141.97;28.09;46927.13;5011662;28;20167;-87
2023/08/23 10:34:44;;;;;;;10.23;8.70;;;;;;;-141.97;28.39;47119.31;5025172;28;20178;-86
2023/08/23 10:37:20;;;;;;;10.52;8.68;;;;;;;-141.97;28.70;47119.31;5022374;28;20534;-87
2023/08/23 10:39:50;;;;;;;12.18;9.32;;;;;;;-141.97;28.61;47303.81;5014625;28;20167;-87
2023/08/23 10:42:19;;;;;;;9.82;8.43;;;;;;;-141.97;27.85;47103.94;5011738;28;20256;-86
2023/08/23 10:44:46;;;;;;;11.27;8.70;;;;;;;-141.97;28.12;47123.16;5009955;28;20206;-87
2023/08/23 10:47:15;;;;;;;9.43;8.02;;;;;;;-141.97;28.55;47111.63;5014308;28;20558;-86
2023/08/23 10:49:41;;;;;;;10.98;8.52;;;;;;;-141.97;28.58;47046.28;5022085;28;20225;-87
2023/08/23 10:52:07;;;;;;;10.82;8.57;;;;;;;-141.97;28.26;47146.22;5018211;28;20246;-82
2023/08/23 10:54:33;;;;;;;10.82;9.27;;;;;;;-141.97;28.66;47315.34;5017803;28;20222;-82
2023/08/23 10:56:59;;;;;;;13.93;8.98;;;;;;;-141.97;28.52;47348.03;5020153;28;20178;-84